Time;durP1;ratioP1;P1;durP2;ratioP2;P2;SDS_P1;SDS_P2;PMS_P1;PMS_P2;Temp;Humidity;BMP_temperature;BMP_pressure;BME280_temperature;BME280_humidity;BME280_pressure;Samples;Min_cycle;Max_cycle;Signal;HPM_P1;HPM_P2
2022/10/07 00:01:50;;;;;;;;;;;;;;;13.92;58.69;100934.09;5005659;28;19977;-72
2022/10/07 00:04:15;;;;;;;;;;;;;;;13.95;58.51;100931.94;5005960;28;20187;-73
2022/10/07 00:06:41;;;;;;;;;;;;;;;13.96;58.22;100933.63;5003233;28;19989;-74
2022/10/07 00:09:06;;;;;;;;;;;;;;;13.98;57.43;100936.13;5004853;28;20111;-73
2022/10/07 00:11:32;;;;;;;;;;;;;;;13.92;57.68;100945.56;5002269;28;20214;-74
2022/10/07 00:13:58;;;;;;;;;;;;;;;13.89;58.15;100943.22;5004764;28;19936;-74
2022/10/07 00:16:27;;;;;;;;;;;;;;;13.77;58.50;100944.44;5004017;28;19922;-72
2022/10/07 00:18:56;;;;;;;;;;;;;;;13.74;59.11;100942.94;5004228;28;20013;-73
2022/10/07 00:21:22;;;;;;;;;;;;;;;13.75;57.50;100946.44;5001885;28;20136;-72
2022/10/07 00:23:47;;;;;;;;;;;;;;;13.54;58.08;100937.91;5002650;28;19918;-70
2022/10/07 00:26:19;;;;;;;;;;;;;;;13.52;58.14;100945.19;5004223;28;19949;-70
2022/10/07 00:28:45;;;;;;;;;;;;;;;13.41;57.14;100948.91;5003767;28;19918;-72
2022/10/07 00:31:15;;;;;;;;;;;;;;;13.28;57.82;100956.41;5003277;28;19925;-70
2022/10/07 00:33:41;;;;;;;;;;;;;;;13.25;57.94;100957.56;5004637;28;19926;-72
2022/10/07 00:36:07;;;;;;;;;;;;;;;13.13;59.00;100950.75;5003456;28;19921;-72
2022/10/07 00:38:32;;;;;;;;;;;;;;;13.03;59.78;100956.13;5004967;28;19948;-70
2022/10/07 00:40:57;;;;;;;;;;;;;;;13.06;60.75;100950.50;5004408;28;20336;-70
2022/10/07 00:43:28;;;;;;;;;;;;;;;12.92;60.93;100947.50;5003462;28;19918;-70
2022/10/07 00:45:56;;;;;;;;;;;;;;;12.91;61.07;100956.47;5004142;28;20170;-71
2022/10/07 00:48:26;;;;;;;;;;;;;;;12.97;59.79;100938.09;5002721;28;20150;-72
2022/10/07 00:50:54;;;;;;;;;;;;;;;12.88;60.82;100946.13;5003059;28;19944;-72
2022/10/07 00:53:20;;;;;;;;;;;;;;;12.91;60.29;100941.34;5004668;28;19925;-72
2022/10/07 00:55:45;;;;;;;;;;;;;;;12.93;60.29;100942.03;5000778;28;19922;-71
2022/10/07 00:58:11;;;;;;;;;;;;;;;13.07;60.36;100946.03;5001770;28;19914;-74
2022/10/07 01:00:37;;;;;;;;;;;;;;;12.97;60.14;100942.59;5003172;28;19933;-74
2022/10/07 01:03:03;;;;;;;;;;;;;;;12.97;60.44;100942.59;5001927;28;19961;-74
2022/10/07 01:05:28;;;;;;;;;;;;;;;13.13;59.58;100939.25;5001495;28;20186;-72
2022/10/07 01:07:54;;;;;;;;;;;;;;;13.10;59.65;100933.25;5003136;28;20226;-74
2022/10/07 01:10:20;;;;;;;;;;;;;;;12.99;59.52;100936.13;5002066;28;19930;-72
2022/10/07 01:13:13;;;;;;;;;;;;;;;12.92;60.17;100936.88;5002438;28;19988;-74
2022/10/07 01:15:41;;;;;;;;;;;;;;;12.94;60.23;100934.91;5002075;28;19929;-74
2022/10/07 01:18:07;;;;;;;;;;;;;;;12.71;61.19;100935.28;5017302;28;19925;-74
2022/10/07 01:20:32;;;;;;;;;;;;;;;12.78;61.02;100940.84;5015150;28;19929;-70
2022/10/07 01:22:58;;;;;;;;;;;;;;;12.75;60.50;100936.66;5002915;28;19917;-72
2022/10/07 01:25:42;;;;;;;;;;;;;;;12.50;60.84;100939.16;5020685;28;19933;-72
2022/10/07 01:28:28;;;;;;;;;;;;;;;12.70;61.18;100933.63;5007237;28;19929;-72
2022/10/07 01:30:57;;;;;;;;;;;;;;;12.76;60.31;100935.69;5007484;28;20235;-72
2022/10/07 01:33:26;;;;;;;;;;;;;;;12.68;60.58;100929.44;5006249;28;19925;-71
2022/10/07 01:35:53;;;;;;;;;;;;;;;12.44;61.19;100935.22;5012905;28;19975;-72
2022/10/07 01:38:21;;;;;;;;;;;;;;;12.31;62.70;100924.09;5008468;28;19917;-73
2022/10/07 01:40:51;;;;;;;;;;;;;;;12.28;62.48;100933.19;5005991;28;19929;-70
2022/10/07 01:43:18;;;;;;;;;;;;;;;12.40;61.63;100925.88;5007274;28;19945;-72
2022/10/07 01:45:45;;;;;;;;;;;;;;;12.35;61.95;100926.31;5006093;28;19928;-70
2022/10/07 01:48:10;;;;;;;;;;;;;;;12.45;61.49;100926.28;5008592;28;20108;-72
2022/10/07 01:50:35;;;;;;;;;;;;;;;12.19;62.56;100926.09;5005068;28;19953;-74
2022/10/07 01:53:14;;;;;;;;;;;;;;;12.31;62.50;100930.25;5005158;28;19918;-74
2022/10/07 01:55:45;;;;;;;;;;;;;;;12.44;61.87;100936.06;5004971;28;19922;-71
2022/10/07 01:58:10;;;;;;;;;;;;;;;12.36;61.38;100933.31;5006073;28;20241;-71
2022/10/07 02:00:40;;;;;;;;;;;;;;;12.37;61.70;100932.31;5006092;28;19934;-70
2022/10/07 02:03:20;;;;;;;;;;;;;;;12.40;61.34;100928.53;5004196;28;19918;-71
2022/10/07 02:05:51;;;;;;;;;;;;;;;12.34;62.21;100924.63;5005659;28;19918;-70
2022/10/07 02:08:19;;;;;;;;;;;;;;;12.34;61.96;100929.13;5004566;28;19968;-69
2022/10/07 02:10:45;;;;;;;;;;;;;;;12.31;62.47;100927.59;5003650;28;19929;-74
2022/10/07 02:13:18;;;;;;;;;;;;;;;12.35;62.31;100930.78;5021848;28;19917;-74
2022/10/07 02:15:46;;;;;;;;;;;;;;;12.07;62.93;100932.53;5006154;28;19930;-74
2022/10/07 02:18:14;;;;;;;;;;;;;;;12.16;63.03;100913.09;5020101;28;20252;-72
2022/10/07 02:20:41;;;;;;;;;;;;;;;11.96;63.78;100922.91;5004348;28;19921;-74
2022/10/07 02:23:08;;;;;;;;;;;;;;;12.06;63.51;100921.09;5005333;28;19918;-72
2022/10/07 02:25:39;;;;;;;;;;;;;;;12.23;62.97;100927.47;5008358;28;19922;-71
2022/10/07 02:28:06;;;;;;;;;;;;;;;12.35;62.19;100928.97;5007625;28;19918;-72
2022/10/07 02:30:33;;;;;;;;;;;;;;;12.47;62.65;100929.63;5006668;28;19933;-72
2022/10/07 02:33:02;;;;;;;;;;;;;;;12.44;61.89;100924.59;5005273;28;19972;-74
2022/10/07 02:35:32;;;;;;;;;;;;;;;11.78;63.95;100925.44;5004109;28;19922;-72
2022/10/07 02:38:00;;;;;;;;;;;;;;;12.17;62.71;100917.41;5007016;28;19940;-74
2022/10/07 02:40:30;;;;;;;;;;;;;;;12.37;62.32;100920.84;5005007;28;20171;-72
2022/10/07 02:42:59;;;;;;;;;;;;;;;12.31;62.44;100924.94;5004396;28;20143;-72
2022/10/07 02:45:33;;;;;;;;;;;;;;;12.20;63.03;100918.94;5008345;28;19951;-74
2022/10/07 02:48:00;;;;;;;;;;;;;;;12.21;62.58;100917.97;5006515;28;19924;-74
2022/10/07 02:50:30;;;;;;;;;;;;;;;12.43;61.77;100920.28;5003686;28;19922;-74
2022/10/07 02:52:56;;;;;;;;;;;;;;;12.39;61.93;100933.00;5019212;28;19960;-74
2022/10/07 02:55:24;;;;;;;;;;;;;;;12.32;62.02;100923.94;5004682;28;19961;-72
2022/10/07 02:57:52;;;;;;;;;;;;;;;12.34;61.81;100927.28;5004302;28;20111;-72
2022/10/07 03:00:17;;;;;;;;;;;;;;;12.41;61.66;100933.69;5003511;28;19944;-74
2022/10/07 03:02:49;;;;;;;;;;;;;;;12.25;62.10;100938.78;5003833;28;20203;-74
2022/10/07 03:05:20;;;;;;;;;;;;;;;12.39;61.83;100926.84;5003923;28;19949;-74
2022/10/07 03:07:46;;;;;;;;;;;;;;;12.31;61.54;100930.25;5003420;28;20103;-72
2022/10/07 03:10:11;;;;;;;;;;;;;;;12.34;61.67;100943.22;5004986;28;20111;-72
2022/10/07 03:12:37;;;;;;;;;;;;;;;12.34;61.46;100945.88;5004844;28;19925;-72
2022/10/07 03:15:02;;;;;;;;;;;;;;;12.10;62.20;100942.88;5006041;28;19929;-74
2022/10/07 03:17:27;;;;;;;;;;;;;;;12.18;61.88;100947.47;5005786;28;19925;-72
2022/10/07 03:19:52;;;;;;;;;;;;;;;12.40;61.43;100945.31;5003225;28;19988;-73
2022/10/07 03:22:19;;;;;;;;;;;;;;;12.41;60.67;100952.28;5007592;28;19924;-74
2022/10/07 03:24:44;;;;;;;;;;;;;;;12.27;61.58;100949.25;5005829;28;19921;-72
2022/10/07 03:27:09;;;;;;;;;;;;;;;12.05;61.84;100938.00;5004328;28;20225;-69
2022/10/07 03:29:34;;;;;;;;;;;;;;;12.24;61.45;100937.09;5003412;28;19921;-71
2022/10/07 03:32:00;;;;;;;;;;;;;;;12.22;61.31;100935.56;5003110;28;19945;-71
2022/10/07 03:34:26;;;;;;;;;;;;;;;12.25;60.66;100938.78;5018316;28;19922;-71
2022/10/07 03:36:52;;;;;;;;;;;;;;;12.19;60.79;100944.66;5003264;28;19916;-72
2022/10/07 03:39:17;;;;;;;;;;;;;;;12.11;61.04;100945.38;5002593;28;19929;-71
2022/10/07 03:41:42;;;;;;;;;;;;;;;12.11;61.93;100937.41;5007531;28;19964;-71
2022/10/07 03:44:08;;;;;;;;;;;;;;;12.02;61.67;100940.09;5006926;28;19957;-71
2022/10/07 03:46:33;;;;;;;;;;;;;;;12.07;62.29;100933.38;5005924;28;20192;-69
2022/10/07 03:48:58;;;;;;;;;;;;;;;12.13;61.51;100931.97;5002823;28;19929;-70
2022/10/07 03:51:23;;;;;;;;;;;;;;;12.11;61.50;100939.22;5004717;28;19926;-71
2022/10/07 03:53:49;;;;;;;;;;;;;;;12.05;61.61;100943.28;5003368;28;19913;-70
2022/10/07 03:56:14;;;;;;;;;;;;;;;12.11;61.18;100942.72;5003311;28;19957;-72
2022/10/07 03:58:39;;;;;;;;;;;;;;;12.00;61.65;100937.56;5019109;28;20017;-69
2022/10/07 04:01:06;;;;;;;;;;;;;;;11.73;63.15;100935.63;5003300;28;20053;-69
2022/10/07 04:03:31;;;;;;;;;;;;;;;11.81;62.36;100941.09;5006102;28;20321;-72
2022/10/07 04:05:58;;;;;;;;;;;;;;;11.93;63.33;100935.63;5005540;28;19925;-72
2022/10/07 04:08:26;;;;;;;;;;;;;;;11.90;62.77;100935.91;5011003;28;19948;-71
2022/10/07 04:10:52;;;;;;;;;;;;;;;11.69;63.03;100936.03;5023241;28;20286;-71
2022/10/07 04:13:17;;;;;;;;;;;;;;;11.62;63.47;100932.28;5022950;28;19913;-74
2022/10/07 04:15:42;;;;;;;;;;;;;;;11.97;62.39;100942.34;5023524;28;20111;-74
2022/10/07 04:18:08;;;;;;;;;;;;;;;11.72;63.02;100938.41;5023285;28;19913;-72
2022/10/07 04:20:36;;;;;;;;;;;;;;;11.63;63.30;100945.41;5023110;28;19932;-74
2022/10/07 04:23:01;;;;;;;;;;;;;;;11.65;62.75;100937.31;5023042;28;20111;-71
2022/10/07 04:25:32;;;;;;;;;;;;;;;11.79;62.18;100942.22;5023236;28;19929;-74
2022/10/07 04:27:58;;;;;;;;;;;;;;;11.95;61.94;100946.94;5022325;28;19920;-69
2022/10/07 04:30:24;;;;;;;;;;;;;;;11.86;62.46;100956.59;5023288;28;20195;-71
2022/10/07 04:32:50;;;;;;;;;;;;;;;11.67;63.22;100938.00;5023131;28;20111;-70
2022/10/07 04:35:19;;;;;;;;;;;;;;;11.70;63.05;100941.22;5022996;28;19968;-69
2022/10/07 04:37:47;;;;;;;;;;;;;;;11.70;62.64;100945.69;5023014;28;19913;-70
2022/10/07 04:40:12;;;;;;;;;;;;;;;11.83;62.45;100948.91;5022099;28;19929;-69
2022/10/07 04:45:21;;;;;;;;;;;;;;;11.74;62.53;100947.91;5022908;28;19928;-70
2022/10/07 04:47:46;;;;;;;;;;;;;;;11.61;62.96;100954.47;5023162;28;19913;-71
2022/10/07 04:50:12;;;;;;;;;;;;;;;11.62;62.84;100954.34;5022530;28;19929;-71
2022/10/07 04:52:41;;;;;;;;;;;;;;;11.47;62.57;100947.75;5022842;28;19920;-69
2022/10/07 04:55:07;;;;;;;;;;;;;;;11.54;62.98;100951.53;5022896;28;20260;-74
2022/10/07 04:57:32;;;;;;;;;;;;;;;11.56;63.10;100957.53;5022779;28;19913;-73
2022/10/07 04:59:57;;;;;;;;;;;;;;;11.36;63.92;100961.13;5024909;28;19925;-72
2022/10/07 05:02:22;;;;;;;;;;;;;;;11.29;63.38;100967.94;5026894;28;20125;-70
2022/10/07 05:04:48;;;;;;;;;;;;;;;11.36;63.18;100966.41;5026744;28;19921;-74
2022/10/07 05:07:13;;;;;;;;;;;;;;;11.16;64.60;100971.69;5026491;28;20273;-69
2022/10/07 05:09:38;;;;;;;;;;;;;;;11.11;64.27;100965.13;5026230;28;19921;-71
2022/10/07 05:12:05;;;;;;;;;;;;;;;11.18;64.18;100968.91;5026505;28;19913;-72
2022/10/07 05:14:31;;;;;;;;;;;;;;;11.03;64.60;100975.56;5026662;28;19945;-71
2022/10/07 05:16:57;;;;;;;;;;;;;;;11.16;64.60;100973.50;5026617;28;19918;-71
2022/10/07 05:19:22;;;;;;;;;;;;;;;11.21;64.86;100976.59;5026355;28;19929;-70
2022/10/07 05:21:47;;;;;;;;;;;;;;;11.32;64.27;100979.13;5009609;28;19932;-69
2022/10/07 05:24:13;;;;;;;;;;;;;;;11.21;64.21;100979.22;5004115;28;19960;-71
2022/10/07 05:26:38;;;;;;;;;;;;;;;11.34;64.19;100977.16;5006408;28;19926;-70
2022/10/07 05:29:04;;;;;;;;;;;;;;;11.67;64.18;100973.31;5021185;28;19922;-70
2022/10/07 05:31:30;;;;;;;;;;;;;;;11.86;63.35;100984.94;5005132;28;19918;-69
2022/10/07 05:33:55;;;;;;;;;;;;;;;11.95;62.75;100984.94;5009705;28;19934;-69
2022/10/07 05:36:20;;;;;;;;;;;;;;;11.77;64.28;100991.91;5023291;28;19952;-72
2022/10/07 05:38:46;;;;;;;;;;;;;;;11.73;64.04;100990.50;5020040;28;19920;-72
2022/10/07 05:41:11;;;;;;;;;;;;;;;12.00;63.55;100989.84;5014780;28;19917;-72
2022/10/07 05:43:40;;;;;;;;;;;;;;;12.32;63.00;100986.84;5021391;28;19917;-72
2022/10/07 05:46:07;;;;;;;;;;;;;;;12.79;62.37;100988.56;5017637;28;19922;-74
2022/10/07 05:48:33;;;;;;;;;;;;;;;13.23;61.10;100985.28;5023078;28;19920;-69
2022/10/07 05:50:58;;;;;;;;;;;;;;;13.73;59.03;100983.00;5026103;28;19925;-70
2022/10/07 05:53:25;;;;;;;;;;;;;;;14.11;57.42;100989.00;5025691;28;19951;-70
2022/10/07 05:55:50;;;;;;;;;;;;;;;13.95;58.14;100985.22;5026177;28;19996;-69
2022/10/07 05:58:16;;;;;;;;;;;;;;;14.10;57.95;100987.31;5024635;28;19960;-72
2022/10/07 06:00:52;;;;;;;;;;;;;;;14.22;57.95;100991.41;5025923;28;19929;-70
2022/10/07 06:03:18;;;;;;;;;;;;;;;14.47;57.29;100985.28;5025686;28;19914;-72
2022/10/07 06:05:44;;;;;;;;;;;;;;;14.71;56.46;100991.78;5025254;28;19967;-70
2022/10/07 06:08:09;;;;;;;;;;;;;;;15.01;56.00;100993.94;5025310;28;19936;-69
2022/10/07 06:13:19;;;;;;;;;;;;;;;15.47;54.65;100981.91;5025551;28;19969;-72
2022/10/07 06:15:44;;;;;;;;;;;;;;;15.50;54.20;100986.06;5025149;28;19921;-72
2022/10/07 06:18:09;;;;;;;;;;;;;;;15.70;53.67;100992.84;5025400;28;19913;-69
2022/10/07 06:20:34;;;;;;;;;;;;;;;15.72;53.89;100996.19;5025584;28;19929;-72
2022/10/07 06:23:00;;;;;;;;;;;;;;;15.76;53.55;100992.19;5011423;28;19913;-71
2022/10/07 06:25:25;;;;;;;;;;;;;;;15.69;53.42;100980.50;5025295;28;19917;-72
2022/10/07 06:27:50;;;;;;;;;;;;;;;15.84;53.16;100988.69;5025160;28;19921;-71
2022/10/07 06:30:16;;;;;;;;;;;;;;;16.03;52.71;100988.34;5025333;28;19968;-71
2022/10/07 06:32:41;;;;;;;;;;;;;;;16.10;52.17;100985.84;5023990;28;19921;-72
2022/10/07 06:35:06;;;;;;;;;;;;;;;16.22;51.88;100987.19;5025204;28;19928;-69
2022/10/07 06:37:32;;;;;;;;;;;;;;;16.46;51.41;100989.81;5025060;28;19952;-72
2022/10/07 06:39:57;;;;;;;;;;;;;;;16.45;50.95;100988.16;5008834;28;19976;-72
2022/10/07 06:42:22;;;;;;;;;;;;;;;16.55;51.24;100980.78;5005230;28;19945;-69
2022/10/07 06:44:47;;;;;;;;;;;;;;;16.34;51.28;100980.47;5005051;28;19921;-69
2022/10/07 06:47:13;;;;;;;;;;;;;;;16.69;50.27;100986.50;5003669;28;19918;-74
2022/10/07 06:49:38;;;;;;;;;;;;;;;16.69;49.98;100983.81;5005031;28;19933;-74
2022/10/07 06:52:03;;;;;;;;;;;;;;;16.88;49.77;100978.06;5008734;28;19925;-74
2022/10/07 06:54:29;;;;;;;;;;;;;;;16.95;49.69;100983.56;5014414;28;19922;-72
2022/10/07 06:56:54;;;;;;;;;;;;;;;17.34;48.88;100980.84;5015665;28;19921;-72
2022/10/07 06:59:19;;;;;;;;;;;;;;;17.64;46.23;100980.00;5017276;28;19928;-72
2022/10/07 07:01:44;;;;;;;;;;;;;;;17.70;45.63;100973.16;5017835;28;20036;-72
2022/10/07 07:04:10;;;;;;;;;;;;;;;17.63;45.15;100970.28;5014982;28;19953;-72
2022/10/07 07:06:35;;;;;;;;;;;;;;;17.60;46.00;100983.22;5014713;28;19917;-72
2022/10/07 07:09:03;;;;;;;;;;;;;;;17.76;46.02;100988.53;5013824;28;19983;-74
2022/10/07 07:11:35;;;;;;;;;;;;;;;18.14;45.12;100986.72;5018908;28;20123;-72
2022/10/07 07:14:02;;;;;;;;;;;;;;;17.92;45.80;100985.72;5015147;28;20297;-72
2022/10/07 07:16:28;;;;;;;;;;;;;;;18.39;44.75;100981.94;5016380;28;19948;-72
2022/10/07 07:18:54;;;;;;;;;;;;;;;18.22;44.90;100978.59;5018765;28;20115;-74
2022/10/07 07:21:20;;;;;;;;;;;;;;;18.04;46.01;100973.56;5023055;28;20080;-72
2022/10/07 07:23:45;;;;;;;;;;;;;;;18.33;45.84;100982.69;5016617;28;19930;-74
2022/10/07 07:26:11;;;;;;;;;;;;;;;18.81;45.32;100976.84;5016463;28;19926;-74
2022/10/07 07:28:36;;;;;;;;;;;;;;;19.06;44.16;100971.19;5016143;28;19933;-74
2022/10/07 07:31:08;;;;;;;;;;;;;;;19.02;44.58;100968.03;5017498;28;19948;-72
2022/10/07 07:33:33;;;;;;;;;;;;;;;18.67;45.18;100968.78;5015820;28;19932;-72
2022/10/07 07:35:59;;;;;;;;;;;;;;;18.37;45.41;100966.03;5015460;28;19949;-74
2022/10/07 07:38:24;;;;;;;;;;;;;;;19.18;44.06;100955.41;5017436;28;20115;-74
2022/10/07 07:40:49;;;;;;;;;;;;;;;19.24;43.77;100965.41;5013878;28;19921;-72
2022/10/07 07:43:14;;;;;;;;;;;;;;;19.57;43.10;100958.56;5013664;28;19932;-74
2022/10/07 07:45:40;;;;;;;;;;;;;;;19.64;42.84;100964.00;5014375;28;19921;-74
2022/10/07 07:48:05;;;;;;;;;;;;;;;20.22;41.63;100959.38;5013887;28;20392;-72
2022/10/07 07:50:30;;;;;;;;;;;;;;;20.36;40.86;100951.22;5016186;28;19922;-72
2022/10/07 07:52:56;;;;;;;;;;;;;;;20.02;41.22;100960.06;5019055;28;20130;-74
2022/10/07 07:55:22;;;;;;;;;;;;;;;20.35;41.11;100948.72;5014249;28;19980;-74
2022/10/07 07:57:47;;;;;;;;;;;;;;;20.32;40.82;100949.09;5012632;28;19918;-72
2022/10/07 08:00:15;;;;;;;;;;;;;;;20.16;41.28;100954.78;5032025;28;19921;-72
2022/10/07 08:02:40;;;;;;;;;;;;;;;20.14;40.69;100949.59;5015629;28;20311;-72
2022/10/07 08:05:05;;;;;;;;;;;;;;;20.16;40.83;100946.72;5014907;28;19922;-72
2022/10/07 08:07:33;;;;;;;;;;;;;;;20.29;40.47;100944.94;5016492;28;19937;-74
2022/10/07 08:09:58;;;;;;;;;;;;;;;20.59;40.40;100942.91;5016834;28;19929;-72
2022/10/07 08:12:23;;;;;;;;;;;;;;;20.14;40.86;100943.38;5016247;28;19917;-75
2022/10/07 08:14:48;;;;;;;;;;;;;;;20.19;40.62;100939.09;5015127;28;19933;-72
2022/10/07 08:17:14;;;;;;;;;;;;;;;20.19;41.23;100935.56;5012064;28;19948;-75
2022/10/07 08:19:39;;;;;;;;;;;;;;;20.33;40.79;100938.16;5016019;28;19991;-72
2022/10/07 08:22:06;;;;;;;;;;;;;;;20.40;41.05;100939.06;5013073;28;19936;-74
2022/10/07 08:24:31;;;;;;;;;;;;;;;20.49;39.76;100938.91;5014452;28;19922;-75
2022/10/07 08:26:56;;;;;;;;;;;;;;;20.65;40.80;100931.34;5032476;28;20272;-74
2022/10/07 08:29:22;;;;;;;;;;;;;;;20.61;39.99;100930.06;5010775;28;19944;-73
2022/10/07 08:31:48;;;;;;;;;;;;;;;20.70;40.10;100925.34;5013295;28;19918;-74
2022/10/07 08:34:13;;;;;;;;;;;;;;;20.69;39.77;100924.53;5014289;28;20270;-74
2022/10/07 08:36:39;;;;;;;;;;;;;;;20.83;40.41;100922.75;5016111;28;20206;-72
2022/10/07 08:39:05;;;;;;;;;;;;;;;20.73;39.43;100922.25;5014210;28;19922;-75
2022/10/07 08:41:53;;;;;;;;;;;;;;;20.74;40.68;100918.53;5010767;28;19964;-75
2022/10/07 08:44:27;;;;;;;;;;;;;;;20.68;43.05;100913.97;5012113;28;19976;-73
2022/10/07 08:46:52;;;;;;;;;;;;;;;20.60;46.67;100911.44;5013123;28;19930;-74
2022/10/07 08:49:21;;;;;;;;;;;;;;;20.98;47.70;100904.59;5015509;28;20151;-72
2022/10/07 08:51:49;;;;;;;;;;;;;;;20.84;45.70;100902.88;5015629;28;19981;-72
2022/10/07 08:54:16;;;;;;;;;;;;;;;21.06;44.58;100900.06;5017398;28;19995;-72
2022/10/07 08:56:42;;;;;;;;;;;;;;;21.08;44.55;100898.81;5012725;28;20254;-72
2022/10/07 08:59:43;;;;;;;;;;;;;;;20.97;44.40;100897.56;5015933;28;19921;-69
2022/10/07 09:02:16;;;;;;;;;;;;;;;21.32;44.97;100892.91;4976705;28;19926;-72
2022/10/07 09:04:44;;;;;;;;;;;;;;;21.22;43.83;100897.00;5008299;28;19988;-69
2022/10/07 09:07:22;;;;;;;;;;;;;;;21.18;42.72;100888.50;5013945;28;19924;-72
2022/10/07 09:09:56;;;;;;;;;;;;;;;21.18;44.49;100874.19;5012762;28;20214;-72
2022/10/07 09:12:37;;;;;;;;;;;;;;;21.16;44.59;100873.56;5016226;28;20111;-69
2022/10/07 09:15:04;;;;;;;;;;;;;;;21.34;41.69;100868.47;5014071;28;20171;-70
2022/10/07 09:17:38;;;;;;;;;;;;;;;21.56;41.81;100861.00;5014017;28;19985;-70
2022/10/07 09:20:23;;;;;;;;;;;;;;;21.40;40.53;100854.16;5012829;28;19928;-73
2022/10/07 09:22:52;;;;;;;;;;;;;;;21.22;40.93;100862.84;5016043;28;19985;-70
2022/10/07 09:25:19;;;;;;;;;;;;;;;21.34;40.71;100852.28;5014631;28;20237;-70
2022/10/07 09:27:45;;;;;;;;;;;;;;;21.31;41.02;100844.63;5015964;28;19932;-70
2022/10/07 09:30:14;;;;;;;;;;;;;;;21.57;39.45;100849.19;5012881;28;20091;-72
2022/10/07 09:32:42;;;;;;;;;;;;;;;21.50;39.19;100840.28;5014765;28;20199;-72
2022/10/07 09:35:17;;;;;;;;;;;;;;;21.67;38.63;100834.25;5014396;28;20301;-72
2022/10/07 09:38:02;;;;;;;;;;;;;;;21.86;37.04;100834.50;5014167;28;19917;-72
2022/10/07 09:40:27;;;;;;;;;;;;;;;21.91;34.85;100829.28;5013183;28;19921;-72
2022/10/07 09:42:53;;;;;;;;;;;;;;;21.77;35.45;100822.22;5013128;28;20111;-72
2022/10/07 09:45:24;;;;;;;;;;;;;;;21.65;36.04;100817.47;5013516;28;19945;-70
2022/10/07 09:47:54;;;;;;;;;;;;;;;21.62;36.53;100811.66;5019208;28;20139;-72
2022/10/07 09:50:36;;;;;;;;;;;;;;;21.38;36.29;100801.53;5016820;28;19960;-72
2022/10/07 09:53:02;;;;;;;;;;;;;;;21.50;37.09;100808.78;5025512;28;19918;-72
2022/10/07 09:55:31;;;;;;;;;;;;;;;21.56;36.02;100801.72;5025057;28;19987;-69
2022/10/07 09:58:00;;;;;;;;;;;;;;;21.68;36.29;100802.75;5024414;28;20183;-69
2022/10/07 10:00:26;;;;;;;;;;;;;;;21.79;34.15;100799.41;5024868;28;20119;-72
2022/10/07 10:02:53;;;;;;;;;;;;;;;21.73;35.80;100788.66;5023761;28;19917;-70
2022/10/07 10:05:24;;;;;;;;;;;;;;;21.93;35.15;100790.28;5023085;28;19921;-69
2022/10/07 10:07:52;;;;;;;;;;;;;;;21.78;35.81;100788.84;5024272;28;19918;-70
2022/10/07 10:10:23;;;;;;;;;;;;;;;21.82;35.14;100790.09;5021700;28;20027;-69
2022/10/07 10:12:50;;;;;;;;;;;;;;;21.79;35.41;100775.16;5024157;28;19922;-70
2022/10/07 10:15:37;;;;;;;;;;;;;;;21.94;35.62;100781.16;5024030;28;19925;-72
2022/10/07 10:18:22;;;;;;;;;;;;;;;22.02;34.75;100763.94;5014456;28;19925;-71
2022/10/07 10:20:47;;;;;;;;;;;;;;;22.01;33.78;100764.97;5023742;28;20225;-72
2022/10/07 10:23:33;;;;;;;;;;;;;;;22.05;34.97;100757.31;5024355;28;19917;-70
2022/10/07 10:26:27;;;;;;;;;;;;;;;22.09;34.21;100740.50;5024527;28;19929;-72
2022/10/07 10:29:11;;;;;;;;;;;;;;;22.23;33.95;100752.06;5024226;28;19929;-70
2022/10/07 10:31:36;;;;;;;;;;;;;;;22.11;34.22;100733.00;5024015;28;19929;-70
2022/10/07 10:34:23;;;;;;;;;;;;;;;22.30;32.91;100733.97;5024288;28;19921;-73
2022/10/07 10:36:52;;;;;;;;;;;;;;;22.09;34.64;100728.88;4993761;28;19924;-73
2022/10/07 10:39:29;;;;;;;;;;;;;;;22.06;33.59;100723.91;5023523;28;20150;-69
2022/10/07 10:41:56;;;;;;;;;;;;;;;22.07;33.53;100717.47;5023968;28;19917;-72
2022/10/07 10:44:36;;;;;;;;;;;;;;;22.20;32.68;100717.41;5021817;28;20111;-69
2022/10/07 10:47:25;;;;;;;;;;;;;;;22.25;32.71;100709.50;5021889;28;19924;-68
2022/10/07 10:50:11;;;;;;;;;;;;;;;22.23;34.60;100700.81;4994900;28;19921;-72
2022/10/07 10:52:44;;;;;;;;;;;;;;;22.35;34.03;100695.56;5022739;28;19967;-69
2022/10/07 10:55:28;;;;;;;;;;;;;;;22.38;33.24;100682.44;5023562;28;19928;-69
2022/10/07 10:57:53;;;;;;;;;;;;;;;22.27;32.80;100691.22;5023444;28;20031;-70
2022/10/07 11:00:20;;;;;;;;;;;;;;;22.54;33.34;100681.13;5023689;28;20126;-69
2022/10/07 11:03:11;;;;;;;;;;;;;;;22.57;32.84;100678.81;5024218;28;19971;-69
2022/10/07 11:05:39;;;;;;;;;;;;;;;22.60;32.60;100674.84;5021044;28;19968;-70
2022/10/07 11:08:07;;;;;;;;;;;;;;;22.71;32.11;100671.44;5012447;28;20205;-72
2022/10/07 11:10:52;;;;;;;;;;;;;;;22.68;31.76;100671.06;5012818;28;19921;-72
2022/10/07 11:13:17;;;;;;;;;;;;;;;22.52;32.67;100672.41;5014944;28;19917;-69
2022/10/07 11:15:49;;;;;;;;;;;;;;;22.54;32.56;100668.44;5013932;28;19952;-70
2022/10/07 11:18:29;;;;;;;;;;;;;;;22.66;32.33;100663.16;5013531;28;20115;-69
2022/10/07 11:20:58;;;;;;;;;;;;;;;22.62;31.85;100664.66;5013452;28;20213;-69
2022/10/07 11:23:26;;;;;;;;;;;;;;;22.54;31.84;100663.03;5013591;28;20138;-69
2022/10/07 11:25:51;;;;;;;;;;;;;;;22.52;31.95;100653.50;5016473;28;19929;-72
2022/10/07 11:28:21;;;;;;;;;;;;;;;22.44;32.73;100648.38;5016396;28;20248;-69
2022/10/07 11:31:01;;;;;;;;;;;;;;;22.37;31.92;100647.59;5014759;28;19960;-72
2022/10/07 11:33:37;;;;;;;;;;;;;;;22.45;30.50;100642.75;5014833;28;19925;-69
2022/10/07 11:36:18;;;;;;;;;;;;;;;22.70;30.78;100644.66;5014143;28;20005;-72
2022/10/07 11:38:44;;;;;;;;;;;;;;;22.42;31.86;100643.19;5013844;28;19956;-72
2022/10/07 11:41:14;;;;;;;;;;;;;;;22.09;32.20;100634.47;5010619;28;20146;-69
2022/10/07 11:43:48;;;;;;;;;;;;;;;22.12;31.96;100632.16;5016353;28;20092;-69
2022/10/07 11:46:19;;;;;;;;;;;;;;;22.04;32.81;100626.19;5013604;28;19925;-70
2022/10/07 11:48:48;;;;;;;;;;;;;;;22.07;31.87;100623.06;5012941;28;19933;-70
2022/10/07 11:51:39;;;;;;;;;;;;;;;22.14;31.72;100624.69;5013715;28;19944;-72
2022/10/07 11:54:07;;;;;;;;;;;;;;;22.15;31.90;100620.13;5009810;28;20522;-70
2022/10/07 11:56:44;;;;;;;;;;;;;;;22.11;31.41;100614.34;5014072;28;19918;-72
2022/10/07 11:59:26;;;;;;;;;;;;;;;22.05;32.16;100609.81;5012602;28;19960;-69
2022/10/07 12:01:52;;;;;;;;;;;;;;;22.05;32.35;100611.69;5010417;28;19918;-70
2022/10/07 12:04:20;;;;;;;;;;;;;;;22.10;31.91;100614.56;5017301;28;19969;-69
2022/10/07 12:07:06;;;;;;;;;;;;;;;21.92;31.50;100618.75;5014004;28;19969;-70
2022/10/07 12:09:49;;;;;;;;;;;;;;;22.10;31.31;100606.47;4983814;28;20230;-71
2022/10/07 12:12:15;;;;;;;;;;;;;;;22.49;30.43;100613.47;5015913;28;20199;-69
2022/10/07 12:14:41;;;;;;;;;;;;;;;22.25;30.19;100602.41;5012505;28;19921;-69
2022/10/07 12:17:17;;;;;;;;;;;;;;;22.27;30.94;100603.03;5013105;28;20199;-69
2022/10/07 12:19:43;;;;;;;;;;;;;;;22.28;30.39;100599.28;5012664;28;19969;-69
2022/10/07 12:22:08;;;;;;;;;;;;;;;22.08;31.35;100592.38;5014195;28;19924;-72
2022/10/07 12:24:37;;;;;;;;;;;;;;;22.25;31.22;100604.28;5014609;28;19922;-69
2022/10/07 12:27:06;;;;;;;;;;;;;;;22.28;30.93;100596.59;5014064;28;19917;-70
2022/10/07 12:29:57;;;;;;;;;;;;;;;22.25;30.88;100588.09;5012144;28;21084;-69
2022/10/07 12:32:59;;;;;;;;;;;;;;;22.26;31.77;100579.78;5016999;28;19932;-72
2022/10/07 12:35:33;;;;;;;;;;;;;;;22.38;30.02;100582.63;4970998;28;19926;-72
2022/10/07 12:38:12;;;;;;;;;;;;;;;22.46;29.87;100574.25;5008190;28;19918;-73
2022/10/07 12:40:38;;;;;;;;;;;;;;;22.39;30.14;100573.47;5011111;28;19928;-69
2022/10/07 12:43:18;;;;;;;;;;;;;;;22.43;29.50;100563.06;5027135;28;19960;-70
2022/10/07 12:45:43;;;;;;;;;;;;;;;22.32;30.06;100555.69;5013636;28;19933;-72
2022/10/07 12:48:13;;;;;;;;;;;;;;;22.19;31.49;100560.13;5011214;28;20277;-69
2022/10/07 12:50:38;;;;;;;;;;;;;;;22.15;31.04;100556.22;5012095;28;19921;-73